sensor_id;sensor_type;location;lat;lon;timestamp;pressure;altitude;pressure_sealevel;temperature;humidity
42621;BME280;28252;53.336;-6.298;2023-03-21T09:31:13;99569.97;;;21.91;100.00
42621;BME280;28252;53.336;-6.298;2023-03-21T09:31:53;99576.84;;;21.93;100.00
42621;BME280;28252;53.336;-6.298;2023-03-21T09:32:26;99571.22;;;21.95;100.00
42621;BME280;28252;53.336;-6.298;2023-03-21T09:33:05;99573.94;;;21.95;100.00
42621;BME280;28252;53.336;-6.298;2023-03-21T09:33:41;99572.88;;;21.96;100.00
42621;BME280;28252;53.336;-6.298;2023-03-21T09:34:17;99588.13;;;21.97;100.00
42621;BME280;28252;53.336;-6.298;2023-03-21T09:34:51;99579.97;;;21.97;100.00
42621;BME280;28252;53.336;-6.298;2023-03-21T09:35:22;99578.91;;;21.98;100.00
42621;BME280;28252;53.336;-6.298;2023-03-21T09:35:57;99587.91;;;21.98;100.00
42621;BME280;28252;53.336;-6.298;2023-03-21T09:36:34;99581.63;;;21.98;100.00
42621;BME280;28252;53.336;-6.298;2023-03-21T09:37:06;99585.81;;;22.00;100.00
42621;BME280;28252;53.336;-6.298;2023-03-21T09:37:42;99580.41;;;22.00;100.00
42621;BME280;28252;53.336;-6.298;2023-03-21T09:38:19;99581.22;;;22.01;100.00
42621;BME280;28252;53.336;-6.298;2023-03-21T09:38:58;99584.53;;;22.03;100.00
42621;BME280;28252;53.336;-6.298;2023-03-21T09:39:35;99582.06;;;22.01;100.00
42621;BME280;28252;53.336;-6.298;2023-03-21T09:40:19;99585.41;;;22.04;100.00
42621;BME280;28252;53.336;-6.298;2023-03-21T09:43:04;99583.09;;;22.07;100.00
42621;BME280;28252;53.336;-6.298;2023-03-21T09:43:49;99591.25;;;22.07;100.00
42621;BME280;28252;53.336;-6.298;2023-03-21T09:44:37;99580.38;;;22.07;100.00
42621;BME280;28252;53.336;-6.298;2023-03-21T09:45:35;99587.47;;;22.08;100.00
42621;BME280;28252;53.336;-6.298;2023-03-21T09:47:29;99583.72;;;22.09;100.00
42621;BME280;28252;53.336;-6.298;2023-03-21T09:47:40;99581.00;;;22.09;100.00
42621;BME280;28252;53.336;-6.298;2023-03-21T09:48:30;99583.50;;;22.11;100.00
42621;BME280;28252;53.336;-6.298;2023-03-21T09:49:10;99585.19;;;22.12;100.00
42621;BME280;28252;53.336;-6.298;2023-03-21T09:49:52;99588.72;;;22.12;100.00
42621;BME280;28252;53.336;-6.298;2023-03-21T09:50:34;99574.09;;;22.13;100.00
42621;BME280;28252;53.336;-6.298;2023-03-21T09:51:33;99576.00;;;22.13;100.00
42621;BME280;28252;53.336;-6.298;2023-03-21T09:52:12;99575.78;;;22.14;100.00
42621;BME280;28252;53.336;-6.298;2023-03-21T09:52:59;99579.53;;;22.13;100.00
42621;BME280;28252;53.336;-6.298;2023-03-21T09:53:35;99581.22;;;22.14;100.00
42621;BME280;28252;53.336;-6.298;2023-03-21T09:54:17;99580.38;;;22.14;100.00
42621;BME280;28252;53.336;-6.298;2023-03-21T09:54:55;99579.13;;;22.16;100.00
42621;BME280;28252;53.336;-6.298;2023-03-21T09:55:30;99575.38;;;22.17;100.00
42621;BME280;28252;53.336;-6.298;2023-03-21T09:56:03;99578.09;;;22.17;100.00
42621;BME280;28252;53.336;-6.298;2023-03-21T09:56:35;99577.03;;;22.18;100.00
42621;BME280;28252;53.336;-6.298;2023-03-21T09:57:59;99577.88;;;22.19;100.00
42621;BME280;28252;53.336;-6.298;2023-03-21T09:58:32;99569.53;;;22.20;100.00
42621;BME280;28252;53.336;-6.298;2023-03-21T09:59:13;99582.03;;;22.22;100.00
42621;BME280;28252;53.336;-6.298;2023-03-21T09:59:51;99576.59;;;22.22;100.00
42621;BME280;28252;53.336;-6.298;2023-03-21T10:00:27;99572.88;;;22.23;100.00
42621;BME280;28252;53.336;-6.298;2023-03-21T10:01:08;99578.28;;;22.23;100.00
42621;BME280;28252;53.336;-6.298;2023-03-21T10:01:53;99572.88;;;22.23;100.00
42621;BME280;28252;53.336;-6.298;2023-03-21T10:03:18;99574.53;;;22.24;100.00
42621;BME280;28252;53.336;-6.298;2023-03-21T10:03:56;99570.75;;;22.25;100.00
42621;BME280;28252;53.336;-6.298;2023-03-21T10:04:29;99575.16;;;22.26;100.00
42621;BME280;28252;53.336;-6.298;2023-03-21T10:05:09;99572.44;;;22.26;100.00
42621;BME280;28252;53.336;-6.298;2023-03-21T10:05:44;99577.88;;;22.26;100.00
42621;BME280;28252;53.336;-6.298;2023-03-21T10:06:22;99571.38;;;22.27;100.00
42621;BME280;28252;53.336;-6.298;2023-03-21T10:07:01;99570.56;;;22.26;100.00
42621;BME280;28252;53.336;-6.298;2023-03-21T10:07:33;99575.81;;;22.28;100.00
42621;BME280;28252;53.336;-6.298;2023-03-21T10:08:19;99568.50;;;22.28;100.00
42621;BME280;28252;53.336;-6.298;2023-03-21T10:08:52;99572.88;;;22.29;100.00
42621;BME280;28252;53.336;-6.298;2023-03-21T10:09:30;99572.06;;;22.29;100.00
42621;BME280;28252;53.336;-6.298;2023-03-21T10:10:04;99572.06;;;22.29;100.00
42621;BME280;28252;53.336;-6.298;2023-03-21T10:10:36;99568.28;;;22.30;100.00
42621;BME280;28252;53.336;-6.298;2023-03-21T10:11:47;99564.53;;;22.31;100.00
42621;BME280;28252;53.336;-6.298;2023-03-21T10:12:21;99564.53;;;22.31;100.00
42621;BME280;28252;53.336;-6.298;2023-03-21T10:13:00;99568.06;;;22.31;100.00
42621;BME280;28252;53.336;-6.298;2023-03-21T10:13:34;99567.88;;;22.33;100.00
42621;BME280;28252;53.336;-6.298;2023-03-21T10:14:15;99566.19;;;22.32;100.00
42621;BME280;28252;53.336;-6.298;2023-03-21T10:14:49;99558.69;;;22.34;100.00
42621;BME280;28252;53.336;-6.298;2023-03-21T10:15:23;99563.25;;;22.33;100.00
42621;BME280;28252;53.336;-6.298;2023-03-21T10:15:57;99563.25;;;22.33;100.00
42621;BME280;28252;53.336;-6.298;2023-03-21T10:16:33;99564.13;;;22.34;100.00
42621;BME280;28252;53.336;-6.298;2023-03-21T10:17:43;99559.31;;;22.36;100.00
42621;BME280;28252;53.336;-6.298;2023-03-21T10:18:20;99560.34;;;22.35;100.00
42621;BME280;28252;53.336;-6.298;2023-03-21T10:18:55;99561.16;;;22.35;100.00
42621;BME280;28252;53.336;-6.298;2023-03-21T10:19:29;99551.19;;;22.36;100.00
42621;BME280;28252;53.336;-6.298;2023-03-21T10:20:09;99562.03;;;22.36;100.00
42621;BME280;28252;53.336;-6.298;2023-03-21T10:20:43;99552.00;;;22.36;100.00
42621;BME280;28252;53.336;-6.298;2023-03-21T10:21:17;99558.25;;;22.37;100.00
42621;BME280;28252;53.336;-6.298;2023-03-21T10:21:52;99565.34;;;22.38;100.00
42621;BME280;28252;53.336;-6.298;2023-03-21T10:22:23;99560.75;;;22.38;100.00
42621;BME280;28252;53.336;-6.298;2023-03-21T10:22:54;99559.94;;;22.38;100.00
42621;BME280;28252;53.336;-6.298;2023-03-21T10:23:28;99558.91;;;22.39;100.00
42621;BME280;28252;53.336;-6.298;2023-03-21T10:23:59;99552.63;;;22.38;100.00
42621;BME280;28252;53.336;-6.298;2023-03-21T10:24:32;99555.31;;;22.38;100.00
42621;BME280;28252;53.336;-6.298;2023-03-21T10:25:04;99556.19;;;22.39;100.00
42621;BME280;28252;53.336;-6.298;2023-03-21T10:26:53;99549.47;;;22.42;100.00
42621;BME280;28252;53.336;-6.298;2023-03-21T10:27:28;99553.00;;;22.42;100.00
42621;BME280;28252;53.336;-6.298;2023-03-21T10:28:01;99551.97;;;22.43;100.00
42621;BME280;28252;53.336;-6.298;2023-03-21T10:28:37;99553.66;;;22.44;100.00
42621;BME280;28252;53.336;-6.298;2023-03-21T10:29:14;99550.94;;;22.44;100.00
42621;BME280;28252;53.336;-6.298;2023-03-21T10:29:46;99556.38;;;22.44;100.00
42621;BME280;28252;53.336;-6.298;2023-03-21T10:30:28;99547.16;;;22.45;100.00
42621;BME280;28252;53.336;-6.298;2023-03-21T10:31:07;99551.56;;;22.46;100.00
42621;BME280;28252;53.336;-6.298;2023-03-21T10:31:42;99553.22;;;22.47;100.00
42621;BME280;28252;53.336;-6.298;2023-03-21T10:32:20;99555.91;;;22.47;100.00
42621;BME280;28252;53.336;-6.298;2023-03-21T10:32:58;99560.31;;;22.48;100.00
42621;BME280;28252;53.336;-6.298;2023-03-21T10:33:35;99557.59;;;22.48;100.00
42621;BME280;28252;53.336;-6.298;2023-03-21T10:34:16;99560.31;;;22.48;100.00
42621;BME280;28252;53.336;-6.298;2023-03-21T10:34:54;99551.13;;;22.49;100.00
42621;BME280;28252;53.336;-6.298;2023-03-21T10:35:27;99557.41;;;22.50;100.00
42621;BME280;28252;53.336;-6.298;2023-03-21T10:36:05;99563.66;;;22.50;100.00
42621;BME280;28252;53.336;-6.298;2023-03-21T10:36:37;99559.91;;;22.51;100.00
42621;BME280;28252;53.336;-6.298;2023-03-21T10:37:11;99557.19;;;22.51;100.00
42621;BME280;28252;53.336;-6.298;2023-03-21T10:37:42;99566.97;;;22.52;100.00
42621;BME280;28252;53.336;-6.298;2023-03-21T10:38:17;99559.69;;;22.53;100.00
42621;BME280;28252;53.336;-6.298;2023-03-21T10:39:48;99562.19;;;22.54;100.00
42621;BME280;28252;53.336;-6.298;2023-03-21T10:40:21;99560.31;;;22.55;100.00
42621;BME280;28252;53.336;-6.298;2023-03-21T10:40:52;99560.31;;;22.55;100.00
42621;BME280;28252;53.336;-6.298;2023-03-21T10:41:25;99566.56;;;22.55;100.00
42621;BME280;28252;53.336;-6.298;2023-03-21T10:42:04;99564.69;;;22.56;100.00
42621;BME280;28252;53.336;-6.298;2023-03-21T10:42:38;99568.22;;;22.56;100.00
42621;BME280;28252;53.336;-6.298;2023-03-21T10:44:15;99559.03;;;22.57;100.00
42621;BME280;28252;53.336;-6.298;2023-03-21T10:44:52;99563.63;;;22.57;100.00
42621;BME280;28252;53.336;-6.298;2023-03-21T10:45:25;99559.03;;;22.57;100.00
42621;BME280;28252;53.336;-6.298;2023-03-21T10:47:07;99560.69;;;22.59;100.00
42621;BME280;28252;53.336;-6.298;2023-03-21T10:47:41;99556.97;;;22.60;100.00
42621;BME280;28252;53.336;-6.298;2023-03-21T10:48:22;99557.78;;;22.60;100.00
42621;BME280;28252;53.336;-6.298;2023-03-21T10:48:53;99558.00;;;22.59;100.00
42621;BME280;28252;53.336;-6.298;2023-03-21T10:49:26;99555.28;;;22.59;100.00
42621;BME280;28252;53.336;-6.298;2023-03-21T10:50:03;99560.69;;;22.59;100.00
42621;BME280;28252;53.336;-6.298;2023-03-21T10:50:36;99551.53;;;22.60;100.00
42621;BME280;28252;53.336;-6.298;2023-03-21T10:51:08;99559.03;;;22.57;100.00
42621;BME280;28252;53.336;-6.298;2023-03-21T10:51:47;99564.44;;;22.57;100.00
42621;BME280;28252;53.336;-6.298;2023-03-21T10:52:22;99560.69;;;22.59;100.00
42621;BME280;28252;53.336;-6.298;2023-03-21T10:52:58;99557.78;;;22.60;100.00
42621;BME280;28252;53.336;-6.298;2023-03-21T10:53:31;99555.28;;;22.59;100.00
42621;BME280;28252;53.336;-6.298;2023-03-21T10:54:11;99553.16;;;22.61;100.00
42621;BME280;28252;53.336;-6.298;2023-03-21T10:54:45;99552.56;;;22.59;100.00
42621;BME280;28252;53.336;-6.298;2023-03-21T10:55:21;99554.03;;;22.61;100.00
42621;BME280;28252;53.336;-6.298;2023-03-21T10:55:56;99544.22;;;22.60;100.00
42621;BME280;28252;53.336;-6.298;2023-03-21T10:56:33;99544.81;;;22.62;100.00
42621;BME280;28252;53.336;-6.298;2023-03-21T10:57:07;99553.16;;;22.61;100.00
42621;BME280;28252;53.336;-6.298;2023-03-21T10:57:44;99561.94;;;22.63;100.00
42621;BME280;28252;53.336;-6.298;2023-03-21T10:58:18;99545.03;;;22.61;100.00
42621;BME280;28252;53.336;-6.298;2023-03-21T10:58:57;99560.28;;;22.62;100.00
42621;BME280;28252;53.336;-6.298;2023-03-21T10:59:52;99553.16;;;22.61;100.00
42621;BME280;28252;53.336;-6.298;2023-03-21T11:00:28;99559.47;;;22.61;100.00
42621;BME280;28252;53.336;-6.298;2023-03-21T11:01:08;99555.88;;;22.61;100.00
42621;BME280;28252;53.336;-6.298;2023-03-21T11:01:52;99566.13;;;22.59;100.00
42621;BME280;28252;53.336;-6.298;2023-03-21T11:02:32;99551.94;;;22.56;100.00
42621;BME280;28252;53.336;-6.298;2023-03-21T11:03:12;99561.75;;;22.57;100.00
42621;BME280;28252;53.336;-6.298;2023-03-21T11:03:53;99564.44;;;22.57;100.00
42621;BME280;28252;53.336;-6.298;2023-03-21T11:04:26;99564.44;;;22.57;100.00
42621;BME280;28252;53.336;-6.298;2023-03-21T11:05:04;99560.69;;;22.59;100.00
42621;BME280;28252;53.336;-6.298;2023-03-21T11:05:38;99567.59;;;22.61;100.00
42621;BME280;28252;53.336;-6.298;2023-03-21T11:06:43;99566.53;;;22.62;100.00
42621;BME280;28252;53.336;-6.298;2023-03-21T11:07:21;99570.06;;;22.63;100.00
42621;BME280;28252;53.336;-6.298;2023-03-21T11:08:12;99567.34;;;22.63;100.00
42621;BME280;28252;53.336;-6.298;2023-03-21T11:08:46;99560.28;;;22.62;100.00
42621;BME280;28252;53.336;-6.298;2023-03-21T11:09:23;99564.66;;;22.63;100.00
42621;BME280;28252;53.336;-6.298;2023-03-21T11:10:11;99561.94;;;22.63;100.00
42621;BME280;28252;53.336;-6.298;2023-03-21T11:10:52;99570.06;;;22.63;100.00
42621;BME280;28252;53.336;-6.298;2023-03-21T11:11:26;99561.09;;;22.62;100.00
42621;BME280;28252;53.336;-6.298;2023-03-21T11:12:03;99563.59;;;22.64;100.00
42621;BME280;28252;53.336;-6.298;2023-03-21T11:12:41;99552.75;;;22.64;100.00
42621;BME280;28252;53.336;-6.298;2023-03-21T11:13:17;99565.28;;;22.65;100.00
42621;BME280;28252;53.336;-6.298;2023-03-21T11:13:56;99555.25;;;22.65;100.00
42621;BME280;28252;53.336;-6.298;2023-03-21T11:14:35;99555.03;;;22.67;100.00
42621;BME280;28252;53.336;-6.298;2023-03-21T11:15:55;99566.72;;;22.67;100.00
42621;BME280;28252;53.336;-6.298;2023-03-21T11:16:34;99554.22;;;22.66;100.00
42621;BME280;28252;53.336;-6.298;2023-03-21T11:17:47;99568.63;;;22.67;100.00
42621;BME280;28252;53.336;-6.298;2023-03-21T11:18:24;99557.75;;;22.67;100.00
42621;BME280;28252;53.336;-6.298;2023-03-21T11:19:02;99568.63;;;22.67;100.00
42621;BME280;28252;53.336;-6.298;2023-03-21T11:19:35;99561.50;;;22.66;100.00
42621;BME280;28252;53.336;-6.298;2023-03-21T11:20:16;99567.78;;;22.66;100.00
42621;BME280;28252;53.336;-6.298;2023-03-21T11:20:51;99568.63;;;22.67;100.00
42621;BME280;28252;53.336;-6.298;2023-03-21T11:21:28;99566.72;;;22.67;100.00
42621;BME280;28252;53.336;-6.298;2023-03-21T11:22:06;99564.22;;;22.66;100.00
42621;BME280;28252;53.336;-6.298;2023-03-21T11:22:41;99556.69;;;22.68;100.00
42621;BME280;28252;53.336;-6.298;2023-03-21T11:23:13;99563.19;;;22.67;100.00
42621;BME280;28252;53.336;-6.298;2023-03-21T11:23:47;99558.56;;;22.67;100.00
42621;BME280;28252;53.336;-6.298;2023-03-21T11:24:19;99563.19;;;22.67;100.00
42621;BME280;28252;53.336;-6.298;2023-03-21T11:25:00;99572.16;;;22.67;100.00
42621;BME280;28252;53.336;-6.298;2023-03-21T11:25:37;99563.19;;;22.67;100.00
42621;BME280;28252;53.336;-6.298;2023-03-21T11:26:15;99559.41;;;22.68;100.00
42621;BME280;28252;53.336;-6.298;2023-03-21T11:26:53;99568.63;;;22.67;100.00
42621;BME280;28252;53.336;-6.298;2023-03-21T11:27:31;99556.94;;;22.66;100.00
42621;BME280;28252;53.336;-6.298;2023-03-21T11:28:06;99555.03;;;22.67;100.00
42621;BME280;28252;53.336;-6.298;2023-03-21T11:28:44;99562.38;;;22.66;100.00
42621;BME280;28252;53.336;-6.298;2023-03-21T11:29:19;99568.63;;;22.67;100.00
42621;BME280;28252;53.336;-6.298;2023-03-21T11:29:53;99563.19;;;22.67;100.00
42621;BME280;28252;53.336;-6.298;2023-03-21T11:30:26;99553.97;;;22.68;100.00
42621;BME280;28252;53.336;-6.298;2023-03-21T11:31:03;99561.09;;;22.69;100.00
42621;BME280;28252;53.336;-6.298;2023-03-21T11:31:42;99567.34;;;22.69;100.00
42621;BME280;28252;53.336;-6.298;2023-03-21T11:32:21;99567.34;;;22.69;100.00
42621;BME280;28252;53.336;-6.298;2023-03-21T11:32:57;99562.75;;;22.70;100.00
42621;BME280;28252;53.336;-6.298;2023-03-21T11:33:34;99562.75;;;22.70;100.00
42621;BME280;28252;53.336;-6.298;2023-03-21T11:34:12;99559.84;;;22.71;100.00
42621;BME280;28252;53.336;-6.298;2023-03-21T11:34:56;99557.94;;;22.72;100.00
42621;BME280;28252;53.336;-6.298;2023-03-21T11:35:34;99563.16;;;22.73;100.00
42621;BME280;28252;53.336;-6.298;2023-03-21T11:36:57;99563.97;;;22.74;100.00
42621;BME280;28252;53.336;-6.298;2023-03-21T11:38:05;99565.66;;;22.75;100.00
42621;BME280;28252;53.336;-6.298;2023-03-21T11:38:41;99561.28;;;22.74;100.00
42621;BME280;28252;53.336;-6.298;2023-03-21T11:39:21;99560.25;;;22.75;100.00
42621;BME280;28252;53.336;-6.298;2023-03-21T11:40:56;99566.69;;;22.74;100.00
42621;BME280;28252;53.336;-6.298;2023-03-21T11:41:32;99567.72;;;22.73;100.00
42621;BME280;28252;53.336;-6.298;2023-03-21T11:42:24;99570.25;;;22.74;100.00
42621;BME280;28252;53.336;-6.298;2023-03-21T11:43:37;99558.56;;;22.74;100.00
42621;BME280;28252;53.336;-6.298;2023-03-21T11:44:27;99575.66;;;22.74;100.00
42621;BME280;28252;53.336;-6.298;2023-03-21T11:45:15;99570.25;;;22.74;100.00
42621;BME280;28252;53.336;-6.298;2023-03-21T11:45:58;99576.53;;;22.75;100.00
42621;BME280;28252;53.336;-6.298;2023-03-21T11:46:39;99566.50;;;22.75;100.00
42621;BME280;28252;53.336;-6.298;2023-03-21T11:47:12;99565.44;;;22.77;100.00
42621;BME280;28252;53.336;-6.298;2023-03-21T11:47:48;99563.56;;;22.77;100.00
42621;BME280;28252;53.336;-6.298;2023-03-21T11:48:20;99569.81;;;22.78;100.00
42621;BME280;28252;53.336;-6.298;2023-03-21T11:49:00;99571.50;;;22.79;100.00
42621;BME280;28252;53.336;-6.298;2023-03-21T11:49:31;99570.63;;;22.78;100.00
42621;BME280;28252;53.336;-6.298;2023-03-21T11:51:15;99571.28;;;22.80;100.00
42621;BME280;28252;53.336;-6.298;2023-03-21T11:52:40;99572.31;;;22.79;100.00
42621;BME280;28252;53.336;-6.298;2023-03-21T11:57:06;99570.22;;;22.81;100.00
42621;BME280;28252;53.336;-6.298;2023-03-21T11:58:04;99576.28;;;22.83;100.00
42621;BME280;28252;53.336;-6.298;2023-03-21T11:59:36;99577.13;;;22.84;100.00
42621;BME280;28252;53.336;-6.298;2023-03-21T12:00:14;99568.16;;;22.83;100.00
42621;BME280;28252;53.336;-6.298;2023-03-21T12:03:07;99567.69;;;22.86;100.00
42621;BME280;28252;53.336;-6.298;2023-03-21T12:03:50;99567.47;;;22.88;100.00
42621;BME280;28252;53.336;-6.298;2023-03-21T12:04:40;99558.50;;;22.87;100.00
42621;BME280;28252;53.336;-6.298;2023-03-21T12:05:16;99562.91;;;22.88;100.00
42621;BME280;28252;53.336;-6.298;2023-03-21T12:05:57;99566.44;;;22.89;100.00
42621;BME280;28252;53.336;-6.298;2023-03-21T12:07:49;99567.25;;;22.89;100.00
42621;BME280;28252;53.336;-6.298;2023-03-21T12:10:35;99568.94;;;22.90;100.00
42621;BME280;28252;53.336;-6.298;2023-03-21T12:11:14;99569.97;;;22.89;100.00
42621;BME280;28252;53.336;-6.298;2023-03-21T12:11:55;99575.41;;;22.89;100.00
42621;BME280;28252;53.336;-6.298;2023-03-21T12:15:34;99573.50;;;22.90;100.00
42621;BME280;28252;53.336;-6.298;2023-03-21T12:16:17;99570.59;;;22.91;100.00
42621;BME280;28252;53.336;-6.298;2023-03-21T12:17:09;99559.50;;;22.93;100.00
42621;BME280;28252;53.336;-6.298;2023-03-21T12:24:31;99565.97;;;22.99;100.00
42621;BME280;28252;53.336;-6.298;2023-03-21T12:25:11;99573.06;;;23.00;100.00
42621;BME280;28252;53.336;-6.298;2023-03-21T12:25:53;99565.97;;;22.99;100.00
42621;BME280;28252;53.336;-6.298;2023-03-21T12:26:28;99565.97;;;22.99;100.00
42621;BME280;28252;53.336;-6.298;2023-03-21T12:28:06;99560.56;;;22.99;100.00
42621;BME280;28252;53.336;-6.298;2023-03-21T12:29:30;99565.97;;;22.99;100.00
42621;BME280;28252;53.336;-6.298;2023-03-21T12:31:42;99572.25;;;22.99;100.00
42621;BME280;28252;53.336;-6.298;2023-03-21T12:36:25;99572.25;;;22.99;100.00
42621;BME280;28252;53.336;-6.298;2023-03-21T12:37:58;99565.97;;;22.99;100.00
42621;BME280;28252;53.336;-6.298;2023-03-21T12:40:08;99564.69;;;23.01;100.00
42621;BME280;28252;53.336;-6.298;2023-03-21T12:40:52;99569.31;;;23.01;100.00
42621;BME280;28252;53.336;-6.298;2023-03-21T12:41:36;99563.88;;;23.01;100.00
42621;BME280;28252;53.336;-6.298;2023-03-21T12:43:52;99563.88;;;23.01;100.00
42621;BME280;28252;53.336;-6.298;2023-03-21T12:44:42;99560.09;;;23.02;100.00
42621;BME280;28252;53.336;-6.298;2023-03-21T12:45:20;99559.28;;;23.01;100.00
42621;BME280;28252;53.336;-6.298;2023-03-21T12:46:00;99556.56;;;23.01;100.00
42621;BME280;28252;53.336;-6.298;2023-03-21T12:47:30;99564.69;;;23.01;100.00
42621;BME280;28252;53.336;-6.298;2023-03-21T12:48:14;99559.06;;;23.03;100.00
42621;BME280;28252;53.336;-6.298;2023-03-21T12:49:42;99551.34;;;23.00;100.00
42621;BME280;28252;53.336;-6.298;2023-03-21T12:50:25;99555.72;;;23.01;100.00
42621;BME280;28252;53.336;-6.298;2023-03-21T12:50:59;99546.53;;;23.02;100.00
42621;BME280;28252;53.336;-6.298;2023-03-21T12:51:38;99541.09;;;23.02;100.00
42621;BME280;28252;53.336;-6.298;2023-03-21T12:52:16;99550.91;;;23.03;100.00
42621;BME280;28252;53.336;-6.298;2023-03-21T12:52:58;99540.06;;;23.03;100.00
42621;BME280;28252;53.336;-6.298;2023-03-21T12:53:34;99547.16;;;23.04;100.00
42621;BME280;28252;53.336;-6.298;2023-03-21T12:55:37;99540.88;;;23.03;100.00
42621;BME280;28252;53.336;-6.298;2023-03-21T12:56:14;99536.28;;;23.04;100.00
42621;BME280;28252;53.336;-6.298;2023-03-21T12:56:56;99536.28;;;23.04;100.00
42621;BME280;28252;53.336;-6.298;2023-03-21T12:57:32;99530.88;;;23.04;100.00
42621;BME280;28252;53.336;-6.298;2023-03-21T12:58:13;99534.63;;;23.03;100.00
42621;BME280;28252;53.336;-6.298;2023-03-21T12:58:56;99530.88;;;23.04;100.00
42621;BME280;28252;53.336;-6.298;2023-03-21T12:59:33;99532.50;;;23.05;100.00
42621;BME280;28252;53.336;-6.298;2023-03-21T13:01:26;99532.50;;;23.05;100.00
42621;BME280;28252;53.336;-6.298;2023-03-21T13:02:02;99535.22;;;23.05;100.00
42621;BME280;28252;53.336;-6.298;2023-03-21T13:02:54;99532.34;;;23.06;100.00
42621;BME280;28252;53.336;-6.298;2023-03-21T13:03:30;99535.88;;;23.07;100.00
42621;BME280;28252;53.336;-6.298;2023-03-21T13:05:47;99534.22;;;23.06;100.00
42621;BME280;28252;53.336;-6.298;2023-03-21T13:06:20;99535.03;;;23.06;100.00
42621;BME280;28252;53.336;-6.298;2023-03-21T13:06:56;99530.44;;;23.07;100.00
42621;BME280;28252;53.336;-6.298;2023-03-21T13:07:36;99522.28;;;23.07;100.00
42621;BME280;28252;53.336;-6.298;2023-03-21T13:08:26;99525.00;;;23.07;100.00
42621;BME280;28252;53.336;-6.298;2023-03-21T13:09:07;99519.56;;;23.07;100.00
42621;BME280;28252;53.336;-6.298;2023-03-21T13:09:48;99531.91;;;23.09;100.00
42621;BME280;28252;53.336;-6.298;2023-03-21T13:10:21;99524.56;;;23.10;100.00
42621;BME280;28252;53.336;-6.298;2023-03-21T13:10:56;99520.00;;;23.10;100.00
42621;BME280;28252;53.336;-6.298;2023-03-21T13:11:30;99524.16;;;23.13;100.00
42621;BME280;28252;53.336;-6.298;2023-03-21T13:12:07;99518.72;;;23.13;100.00
42621;BME280;28252;53.336;-6.298;2023-03-21T13:14:35;99522.25;;;23.13;100.00
42621;BME280;28252;53.336;-6.298;2023-03-21T13:16:57;99517.47;;;23.16;100.00
42621;BME280;28252;53.336;-6.298;2023-03-21T13:17:40;99509.06;;;23.17;100.00
42621;BME280;28252;53.336;-6.298;2023-03-21T13:21:19;99499.66;;;23.20;100.00
42621;BME280;28252;53.336;-6.298;2023-03-21T13:22:33;99502.16;;;23.21;100.00
42621;BME280;28252;53.336;-6.298;2023-03-21T13:23:13;99503.19;;;23.20;100.00
42621;BME280;28252;53.336;-6.298;2023-03-21T13:23:54;99497.78;;;23.20;100.00
42621;BME280;28252;53.336;-6.298;2023-03-21T13:24:37;99487.97;;;23.19;100.00
42621;BME280;28252;53.336;-6.298;2023-03-21T13:25:23;99492.34;;;23.20;100.00
42621;BME280;28252;53.336;-6.298;2023-03-21T13:25:57;99494.22;;;23.20;100.00
42621;BME280;28252;53.336;-6.298;2023-03-21T13:26:37;99490.69;;;23.19;100.00
42621;BME280;28252;53.336;-6.298;2023-03-21T13:28:03;99495.66;;;23.22;100.00
42621;BME280;28252;53.336;-6.298;2023-03-21T13:28:39;99490.22;;;23.22;100.00
42621;BME280;28252;53.336;-6.298;2023-03-21T13:29:22;99483.16;;;23.21;100.00
42621;BME280;28252;53.336;-6.298;2023-03-21T13:30:30;99489.41;;;23.22;100.00
42621;BME280;28252;53.336;-6.298;2023-03-21T13:31:21;99484.78;;;23.22;100.00
42621;BME280;28252;53.336;-6.298;2023-03-21T13:31:55;99486.47;;;23.23;100.00
42621;BME280;28252;53.336;-6.298;2023-03-21T13:32:36;99473.72;;;23.24;100.00
42621;BME280;28252;53.336;-6.298;2023-03-21T13:33:21;99481.84;;;23.24;100.00
42621;BME280;28252;53.336;-6.298;2023-03-21T13:33:57;99478.09;;;23.25;100.00
42621;BME280;28252;53.336;-6.298;2023-03-21T13:34:31;99483.53;;;23.25;100.00
42621;BME280;28252;53.336;-6.298;2023-03-21T13:35:42;99474.56;;;23.24;100.00
42621;BME280;28252;53.336;-6.298;2023-03-21T13:36:20;99481.84;;;23.24;100.00
42621;BME280;28252;53.336;-6.298;2023-03-21T13:36:56;99475.59;;;23.23;100.00
42621;BME280;28252;53.336;-6.298;2023-03-21T13:37:37;99471.84;;;23.24;100.00
42621;BME280;28252;53.336;-6.298;2023-03-21T13:38:26;99459.31;;;23.23;100.00
42621;BME280;28252;53.336;-6.298;2023-03-21T13:39:02;99464.94;;;23.22;100.00
42621;BME280;28252;53.336;-6.298;2023-03-21T13:39:35;99456.59;;;23.23;100.00
42621;BME280;28252;53.336;-6.298;2023-03-21T13:40:25;99460.13;;;23.24;100.00
42621;BME280;28252;53.336;-6.298;2023-03-21T13:41:00;99456.59;;;23.23;100.00
42621;BME280;28252;53.336;-6.298;2023-03-21T13:41:41;99455.56;;;23.24;100.00
42621;BME280;28252;53.336;-6.298;2023-03-21T13:42:17;99446.31;;;23.25;100.00
42621;BME280;28252;53.336;-6.298;2023-03-21T13:42:51;99448.44;;;23.23;100.00
42621;BME280;28252;53.336;-6.298;2023-03-21T13:44:57;99443.38;;;23.27;100.00
42621;BME280;28252;53.336;-6.298;2023-03-21T13:45:43;99454.25;;;23.27;100.00
42621;BME280;28252;53.336;-6.298;2023-03-21T13:48:04;99443.38;;;23.27;100.00
42621;BME280;28252;53.336;-6.298;2023-03-21T13:49:33;99440.47;;;23.28;100.00
42621;BME280;28252;53.336;-6.298;2023-03-21T13:50:26;99438.56;;;23.29;100.00
42621;BME280;28252;53.336;-6.298;2023-03-21T13:51:05;99436.69;;;23.29;100.00
42621;BME280;28252;53.336;-6.298;2023-03-21T13:53:58;99433.97;;;23.29;100.00
42621;BME280;28252;53.336;-6.298;2023-03-21T13:55:14;99425.63;;;23.31;100.00
42621;BME280;28252;53.336;-6.298;2023-03-21T13:55:48;99433.75;;;23.31;100.00
42621;BME280;28252;53.336;-6.298;2023-03-21T13:56:29;99431.88;;;23.31;100.00
42621;BME280;28252;53.336;-6.298;2023-03-21T13:57:55;99430.19;;;23.30;100.00
42621;BME280;28252;53.336;-6.298;2023-03-21T13:58:49;99421.22;;;23.30;100.00